createdAt,value
2018-07-01T00:00:19.008Z,6.70
2018-07-01T00:02:47.522Z,7.07
2018-07-01T00:05:16.054Z,6.30
2018-07-01T00:07:44.486Z,6.53
2018-07-01T00:10:12.983Z,6.30
2018-07-01T00:12:41.462Z,6.67
2018-07-01T00:15:10.065Z,6.30
2018-07-01T00:17:38.665Z,6.37
2018-07-01T00:20:08.010Z,6.63
2018-07-01T00:22:37.078Z,6.83
2018-07-01T00:25:05.594Z,7.17
2018-07-01T00:27:34.127Z,7.10
2018-07-01T00:30:02.727Z,8.10
2018-07-01T00:32:31.205Z,7.27
2018-07-01T00:34:59.639Z,7.07
2018-07-01T00:37:28.096Z,8.07
2018-07-01T00:39:56.571Z,6.93
2018-07-01T00:42:24.988Z,7.10
2018-07-01T00:44:53.442Z,7.30
2018-07-01T00:47:21.955Z,7.43
2018-07-01T00:49:50.773Z,6.43
2018-07-01T00:52:19.227Z,6.67
2018-07-01T00:54:47.683Z,6.30
2018-07-01T00:57:16.103Z,6.20
2018-07-01T00:59:44.523Z,6.50
2018-07-01T01:02:12.947Z,6.43
2018-07-01T01:04:41.422Z,6.17
2018-07-01T01:07:09.898Z,5.53
2018-07-01T01:09:38.367Z,5.63
2018-07-01T01:12:06.901Z,5.67
2018-07-01T01:14:35.346Z,6.20
2018-07-01T01:17:03.840Z,5.80
2018-07-01T01:19:32.544Z,5.60
2018-07-01T01:22:01.029Z,6.27
2018-07-01T01:24:29.463Z,5.73
2018-07-01T01:26:57.885Z,5.50
2018-07-01T01:29:26.281Z,5.93
2018-07-01T01:31:54.765Z,5.50
2018-07-01T01:34:23.314Z,5.10
2018-07-01T01:36:51.900Z,5.40
2018-07-01T01:39:24.068Z,5.33
2018-07-01T01:41:59.172Z,5.13
2018-07-01T01:44:31.503Z,5.53
2018-07-01T01:47:03.322Z,5.20
2018-07-01T01:49:37.836Z,5.50
2018-07-01T01:52:11.371Z,5.37
2018-07-01T01:55:44.172Z,5.23
2018-07-01T02:00:20.377Z,4.70
2018-07-01T02:03:08.860Z,4.97
2018-07-01T02:05:44.092Z,5.80
2018-07-01T02:08:16.719Z,5.67
2018-07-01T02:10:45.290Z,4.97
2018-07-01T02:13:13.873Z,5.17
2018-07-01T02:15:49.075Z,5.53
2018-07-01T02:18:17.587Z,5.93
2018-07-01T02:20:46.095Z,5.83
2018-07-01T02:23:32.227Z,5.23
2018-07-01T02:26:00.818Z,5.30
2018-07-01T02:28:29.347Z,5.73
2018-07-01T02:30:57.795Z,5.53
2018-07-01T02:33:26.240Z,5.57
2018-07-01T02:35:54.629Z,5.03
2018-07-01T02:38:23.028Z,5.40
2018-07-01T02:40:51.467Z,5.53
2018-07-01T02:43:19.912Z,4.87
2018-07-01T02:45:48.389Z,5.10
2018-07-01T02:48:16.788Z,5.27
2018-07-01T02:50:45.228Z,5.50
2018-07-01T02:53:13.659Z,5.00
2018-07-01T02:55:42.733Z,4.90
2018-07-01T02:58:11.212Z,4.37
2018-07-01T03:00:39.678Z,4.90
2018-07-01T03:03:08.353Z,5.10
2018-07-01T03:05:36.837Z,4.80
2018-07-01T03:08:05.272Z,4.67
2018-07-01T03:10:33.728Z,4.73
2018-07-01T03:13:02.150Z,5.00
2018-07-01T03:15:30.596Z,4.33
2018-07-01T03:17:59.034Z,4.10
2018-07-01T03:20:27.440Z,4.53
2018-07-01T03:22:55.895Z,4.20
2018-07-01T03:25:24.307Z,4.83
2018-07-01T03:27:52.771Z,4.10
2018-07-01T03:30:21.200Z,4.53
2018-07-01T03:32:49.609Z,4.17
2018-07-01T03:35:18.049Z,4.30
2018-07-01T03:37:46.444Z,4.47
2018-07-01T03:40:14.856Z,4.53
2018-07-01T03:42:43.290Z,4.00
2018-07-01T03:45:11.719Z,4.23
2018-07-01T03:47:40.140Z,4.37
2018-07-01T03:50:08.577Z,4.30
2018-07-01T03:52:37.043Z,4.10
2018-07-01T03:55:05.576Z,4.20
2018-07-01T03:57:34.022Z,3.90
2018-07-01T04:00:02.571Z,4.10
2018-07-01T04:02:31.046Z,4.77
2018-07-01T04:04:59.508Z,5.43
2018-07-01T04:07:27.934Z,4.60
2018-07-01T04:09:56.367Z,4.33
2018-07-01T04:12:24.769Z,4.40
2018-07-01T04:14:53.298Z,4.40
2018-07-01T04:17:21.721Z,4.70
2018-07-01T04:19:50.167Z,4.10
2018-07-01T04:22:18.599Z,4.50
2018-07-01T04:24:47.027Z,4.10
2018-07-01T04:27:15.511Z,4.03
2018-07-01T04:29:43.910Z,4.60
2018-07-01T04:32:12.468Z,4.03
2018-07-01T04:34:40.861Z,4.60
2018-07-01T04:37:09.288Z,4.47
2018-07-01T04:39:37.735Z,4.87
2018-07-01T04:42:06.127Z,4.23
2018-07-01T04:44:34.562Z,4.33
2018-07-01T04:47:02.969Z,4.47
2018-07-01T04:49:31.387Z,4.23
2018-07-01T04:51:59.799Z,4.30
2018-07-01T04:54:28.195Z,4.40
2018-07-01T04:56:56.632Z,4.50
2018-07-01T04:59:25.193Z,4.20
2018-07-01T05:01:53.693Z,4.40
2018-07-01T05:04:22.115Z,4.20
2018-07-01T05:06:50.503Z,4.20
2018-07-01T05:09:18.916Z,4.37
2018-07-01T05:11:47.376Z,4.33
2018-07-01T05:14:15.783Z,4.50
2018-07-01T05:16:44.194Z,4.63
2018-07-01T05:19:12.584Z,4.87
2018-07-01T05:21:40.996Z,4.57
2018-07-01T05:24:09.431Z,4.37
2018-07-01T05:26:37.861Z,4.50
2018-07-01T05:29:06.263Z,3.83
2018-07-01T05:31:34.770Z,4.87
2018-07-01T05:34:03.235Z,4.27
2018-07-01T05:36:31.790Z,3.60
2018-07-01T05:39:00.195Z,4.27
2018-07-01T05:41:28.595Z,3.97
2018-07-01T05:43:57.079Z,3.63
2018-07-01T05:46:25.530Z,3.60
2018-07-01T05:48:53.972Z,4.00
2018-07-01T05:51:22.431Z,3.60
2018-07-01T05:53:50.848Z,3.70
2018-07-01T05:56:19.346Z,3.93
2018-07-01T05:58:47.780Z,3.67
2018-07-01T06:01:16.228Z,4.27
2018-07-01T06:03:44.787Z,3.87
2018-07-01T06:06:13.186Z,3.60
2018-07-01T06:08:42.669Z,4.13
2018-07-01T06:11:11.114Z,3.73
2018-07-01T06:13:39.585Z,3.60
2018-07-01T06:16:08.061Z,3.73
2018-07-01T06:18:36.508Z,3.90
2018-07-01T06:21:05.022Z,3.40
2018-07-01T06:23:33.604Z,3.83
2018-07-01T06:26:02.018Z,3.70
2018-07-01T06:28:30.427Z,3.70
2018-07-01T06:30:58.915Z,3.47
2018-07-01T06:33:27.296Z,3.23
2018-07-01T06:35:55.710Z,2.77
2018-07-01T06:38:24.122Z,3.17
2018-07-01T06:40:53.120Z,3.00
2018-07-01T06:43:21.534Z,2.90
2018-07-01T06:45:50.060Z,3.00
2018-07-01T06:48:18.481Z,3.30
2018-07-01T06:50:46.955Z,3.00
2018-07-01T06:53:15.362Z,3.00
2018-07-01T06:55:43.772Z,3.30
2018-07-01T06:58:12.311Z,3.30
2018-07-01T07:00:40.752Z,3.40
2018-07-01T07:03:09.188Z,2.90
2018-07-01T07:05:37.642Z,2.90
2018-07-01T07:08:06.150Z,2.70
2018-07-01T07:10:34.529Z,3.13
2018-07-01T07:13:03.004Z,2.73
2018-07-01T07:15:31.436Z,3.10
2018-07-01T07:17:59.867Z,2.43
2018-07-01T07:20:28.284Z,2.67
2018-07-01T07:22:56.692Z,2.83
2018-07-01T07:25:25.092Z,2.87
2018-07-01T07:27:53.532Z,3.00
2018-07-01T07:30:21.984Z,3.30
2018-07-01T07:32:50.399Z,2.60
2018-07-01T07:35:18.884Z,2.97
2018-07-01T07:37:47.304Z,3.17
2018-07-01T07:40:15.712Z,2.90
2018-07-01T07:42:44.115Z,3.20
2018-07-01T07:45:12.699Z,3.10
2018-07-01T07:47:41.108Z,3.03
2018-07-01T07:50:09.749Z,2.83
2018-07-01T07:52:38.184Z,4.07
2018-07-01T07:55:06.631Z,3.00
2018-07-01T07:57:35.032Z,2.60
2018-07-01T08:00:03.556Z,3.00
2018-07-01T08:02:32.127Z,3.13
2018-07-01T08:05:00.579Z,3.00
2018-07-01T08:07:29.064Z,3.43
2018-07-01T08:09:57.483Z,3.10
2018-07-01T08:12:26.088Z,2.93
2018-07-01T08:14:54.550Z,3.20
2018-07-01T08:17:23.027Z,3.30
2018-07-01T08:19:51.443Z,3.53
2018-07-01T08:22:19.844Z,3.07
2018-07-01T08:24:48.343Z,3.07
2018-07-01T08:27:16.766Z,3.37
2018-07-01T08:29:45.174Z,3.17
2018-07-01T08:32:14.072Z,3.20
2018-07-01T08:34:42.492Z,3.23
2018-07-01T08:37:10.919Z,3.30
2018-07-01T08:39:39.358Z,3.30
2018-07-01T08:42:18.827Z,3.23
2018-07-01T08:44:47.240Z,3.50
2018-07-01T08:47:15.993Z,3.37
2018-07-01T08:49:44.553Z,3.17
2018-07-01T08:52:13.730Z,3.00
2018-07-01T08:54:42.686Z,3.23
2018-07-01T08:57:11.587Z,3.40
2018-07-01T08:59:40.551Z,3.27
2018-07-01T09:02:09.085Z,3.13
2018-07-01T09:04:37.565Z,3.00
2018-07-01T09:07:06.176Z,2.90
2018-07-01T09:09:34.990Z,3.00
2018-07-01T09:12:03.449Z,3.10
2018-07-01T09:14:31.910Z,3.17
2018-07-01T09:17:00.395Z,3.40
2018-07-01T09:19:28.840Z,3.27
2018-07-01T09:21:57.332Z,3.17
2018-07-01T09:24:25.727Z,3.30
2018-07-01T09:26:54.219Z,2.80
2018-07-01T09:29:22.672Z,3.03
2018-07-01T09:31:52.456Z,2.30
2018-07-01T09:34:22.113Z,2.60
2018-07-01T09:36:51.240Z,2.70
2018-07-01T09:39:20.917Z,2.80
2018-07-01T09:41:51.179Z,3.10
2018-07-01T09:44:19.651Z,3.10
2018-07-01T09:46:48.207Z,3.00
2018-07-01T09:49:16.707Z,3.00
2018-07-01T09:51:45.204Z,2.73
2018-07-01T09:54:13.829Z,2.97
2018-07-01T09:56:42.820Z,2.90
2018-07-01T09:59:11.447Z,2.60
2018-07-01T10:01:39.883Z,3.17
2018-07-01T10:04:08.327Z,2.70
2018-07-01T10:06:36.707Z,2.90
2018-07-01T10:09:07.665Z,2.93
2018-07-01T10:11:36.130Z,3.10
2018-07-01T10:14:05.017Z,2.80
2018-07-01T10:16:33.452Z,2.77
2018-07-01T10:19:01.862Z,2.77
2018-07-01T10:21:30.388Z,3.13
2018-07-01T10:23:59.453Z,2.70
2018-07-01T10:26:28.328Z,2.60
2018-07-01T10:29:16.740Z,3.00
2018-07-01T10:31:45.757Z,2.87
2018-07-01T10:34:14.970Z,2.60
2018-07-01T10:36:43.648Z,2.50
2018-07-01T10:39:13.516Z,2.80
2018-07-01T10:41:41.994Z,2.77
2018-07-01T10:44:10.416Z,2.80
2018-07-01T10:46:38.804Z,2.50
2018-07-01T10:49:07.375Z,2.80
2018-07-01T10:51:36.381Z,2.90
2018-07-01T10:54:04.837Z,2.73
2018-07-01T10:56:33.415Z,2.93
2018-07-01T10:59:01.830Z,2.77
2018-07-01T11:01:30.532Z,2.60
2018-07-01T11:03:59.426Z,2.50
2018-07-01T11:06:28.084Z,2.50
2018-07-01T11:08:56.704Z,2.70
2018-07-01T11:11:25.174Z,2.93
2018-07-01T11:13:53.621Z,3.57
2018-07-01T11:16:22.019Z,2.80
2018-07-01T11:18:50.460Z,2.53
2018-07-01T11:21:18.916Z,3.07
2018-07-01T11:23:47.384Z,2.43
2018-07-01T11:26:15.817Z,2.40
2018-07-01T11:28:44.373Z,2.60
2018-07-01T11:31:12.767Z,2.90
2018-07-01T11:33:41.319Z,2.90
2018-07-01T11:36:09.853Z,2.50
2018-07-01T11:38:38.484Z,2.80
2018-07-01T11:41:06.970Z,3.17
2018-07-01T11:43:35.387Z,3.17
2018-07-01T11:46:03.800Z,2.70
2018-07-01T11:48:32.242Z,2.90
2018-07-01T11:51:00.839Z,2.83
2018-07-01T11:53:29.278Z,3.00
2018-07-01T11:55:57.732Z,2.93
2018-07-01T11:58:26.165Z,2.53
2018-07-01T12:00:54.784Z,3.03
2018-07-01T12:03:23.232Z,2.83
2018-07-01T12:05:51.702Z,3.50
2018-07-01T12:08:20.139Z,2.83
2018-07-01T12:10:48.605Z,3.10
2018-07-01T12:13:17.151Z,2.77
2018-07-01T12:15:45.707Z,2.73
2018-07-01T12:18:14.212Z,2.47
2018-07-01T12:20:42.666Z,2.23
2018-07-01T12:23:11.089Z,2.30
2018-07-01T12:25:39.490Z,3.33
2018-07-01T12:28:07.925Z,2.63
2018-07-01T12:30:36.970Z,2.90
2018-07-01T12:33:06.315Z,2.53
2018-07-01T12:35:34.925Z,2.80
2018-07-01T12:38:03.371Z,2.83
2018-07-01T12:40:31.807Z,2.30
2018-07-01T12:43:00.228Z,2.50
2018-07-01T12:45:28.712Z,3.00
2018-07-01T12:47:57.167Z,2.30
2018-07-01T12:50:25.596Z,2.90
2018-07-01T12:52:53.987Z,2.60
2018-07-01T12:55:22.451Z,2.77
2018-07-01T12:57:51.006Z,2.43
2018-07-01T13:00:19.533Z,2.47
2018-07-01T13:02:47.972Z,2.87
2018-07-01T13:05:16.427Z,2.60
2018-07-01T13:07:44.924Z,3.10
2018-07-01T13:10:13.533Z,3.03
2018-07-01T13:12:42.033Z,2.80
2018-07-01T13:15:10.531Z,2.33
2018-07-01T13:17:38.939Z,2.13
2018-07-01T13:20:07.347Z,2.20
2018-07-01T13:22:35.784Z,2.37
2018-07-01T13:25:04.324Z,2.10
2018-07-01T13:27:32.782Z,2.33
2018-07-01T13:30:01.784Z,2.40
2018-07-01T13:32:30.708Z,1.67
2018-07-01T13:34:59.124Z,2.73
2018-07-01T13:37:27.592Z,2.70
2018-07-01T13:39:56.013Z,2.07
2018-07-01T13:42:24.482Z,2.30
2018-07-01T13:44:53.006Z,2.37
2018-07-01T13:47:21.424Z,2.53
2018-07-01T13:49:49.843Z,2.00
2018-07-01T13:52:18.296Z,2.47
2018-07-01T13:54:46.711Z,2.40
2018-07-01T13:57:15.120Z,1.70
2018-07-01T13:59:43.509Z,2.37
2018-07-01T14:02:11.904Z,2.07
2018-07-01T14:04:40.448Z,2.07
2018-07-01T14:07:08.904Z,2.20
2018-07-01T14:09:37.445Z,2.00
2018-07-01T14:12:05.896Z,1.80
2018-07-01T14:14:34.299Z,2.17
2018-07-01T14:17:02.714Z,2.10
2018-07-01T14:19:31.150Z,1.80
2018-07-01T14:21:59.563Z,1.90
2018-07-01T14:24:27.975Z,1.80
2018-07-01T14:26:56.417Z,1.50
2018-07-01T14:29:24.848Z,1.62
2018-07-01T14:31:53.254Z,1.80
2018-07-01T14:34:21.667Z,1.97
2018-07-01T14:36:50.064Z,1.60
2018-07-01T14:39:18.484Z,1.90
2018-07-01T14:41:46.922Z,2.00
2018-07-01T14:44:15.307Z,2.00
2018-07-01T14:46:43.723Z,1.80
2018-07-01T14:49:12.127Z,2.30
2018-07-01T14:51:40.744Z,2.10
2018-07-01T14:54:09.156Z,2.20
2018-07-01T14:56:37.636Z,1.98
2018-07-01T14:59:06.107Z,2.12
2018-07-01T15:01:34.648Z,2.55
2018-07-01T15:04:03.107Z,2.20
2018-07-01T15:06:31.542Z,2.22
2018-07-01T15:08:59.959Z,2.30
2018-07-01T15:11:28.392Z,2.77
2018-07-01T15:13:57.755Z,5.47
2018-07-01T15:16:26.237Z,2.50
2018-07-01T15:18:54.679Z,2.43
2018-07-01T15:21:23.079Z,2.30
2018-07-01T15:23:51.569Z,2.47
2018-07-01T15:26:20.022Z,2.77
2018-07-01T15:28:48.428Z,2.70
2018-07-01T15:31:16.839Z,2.70
2018-07-01T15:33:45.241Z,2.90
2018-07-01T15:36:13.660Z,2.50
2018-07-01T15:38:42.091Z,2.80
2018-07-01T15:41:10.521Z,2.40
2018-07-01T15:43:38.947Z,2.70
2018-07-01T15:46:07.798Z,2.47
2018-07-01T15:48:36.240Z,2.57
2018-07-01T15:51:04.712Z,2.57
2018-07-01T15:53:33.124Z,2.30
2018-07-01T15:56:01.568Z,3.00
2018-07-01T15:58:30.052Z,2.08
2018-07-01T16:00:58.457Z,2.33
2018-07-01T16:03:26.908Z,2.30
2018-07-01T16:05:55.548Z,2.23
2018-07-01T16:08:23.971Z,1.80
2018-07-01T16:10:52.400Z,1.70
2018-07-01T16:13:20.821Z,2.10
2018-07-01T16:15:49.234Z,3.17
2018-07-01T16:18:18.098Z,2.40
2018-07-01T16:20:46.539Z,1.80
2018-07-01T16:23:14.970Z,2.00
2018-07-01T16:25:48.680Z,1.93
2018-07-01T16:28:22.246Z,2.10
2018-07-01T16:30:50.627Z,1.60
2018-07-01T16:33:19.045Z,1.80
2018-07-01T16:35:47.751Z,1.77
2018-07-01T16:38:16.147Z,2.43
2018-07-01T16:40:44.644Z,1.70
2018-07-01T16:43:13.168Z,2.00
2018-07-01T16:45:41.568Z,2.10
2018-07-01T16:48:10.115Z,1.97
2018-07-01T16:50:38.663Z,1.80
2018-07-01T16:53:07.051Z,1.83
2018-07-01T16:55:35.456Z,1.80
2018-07-01T16:58:03.860Z,1.87
2018-07-01T17:00:32.251Z,1.70
2018-07-01T17:03:00.781Z,1.93
2018-07-01T17:05:29.373Z,1.90
2018-07-01T17:07:57.680Z,1.97
2018-07-01T17:10:26.060Z,1.87
2018-07-01T17:12:54.472Z,1.90
2018-07-01T17:15:22.871Z,1.83
2018-07-01T17:17:51.362Z,2.07
2018-07-01T17:20:19.756Z,2.10
2018-07-01T17:22:48.585Z,2.00
2018-07-01T17:25:17.055Z,2.07
2018-07-01T17:27:45.482Z,1.83
2018-07-01T17:30:13.890Z,2.13
2018-07-01T17:32:47.588Z,2.23
2018-07-01T17:35:15.994Z,2.43
2018-07-01T17:37:44.437Z,2.10
2018-07-01T17:40:12.864Z,2.30
2018-07-01T17:42:41.308Z,2.20
2018-07-01T17:45:09.735Z,2.50
2018-07-01T17:47:38.128Z,2.27
2018-07-01T17:50:06.531Z,2.70
2018-07-01T17:52:34.983Z,2.40
2018-07-01T17:55:03.540Z,2.97
2018-07-01T17:57:31.942Z,3.07
2018-07-01T18:00:00.354Z,3.00
2018-07-01T18:02:28.823Z,2.60
2018-07-01T18:04:57.235Z,2.63
2018-07-01T18:07:25.698Z,2.90
2018-07-01T18:09:54.147Z,2.80
2018-07-01T18:12:22.523Z,2.97
2018-07-01T18:14:50.969Z,3.37
2018-07-01T18:17:19.391Z,3.20
2018-07-01T18:19:47.839Z,3.70
2018-07-01T18:22:27.967Z,3.43
2018-07-01T18:25:01.545Z,3.60
2018-07-01T18:27:13.206Z,3.37
2018-07-01T18:29:41.662Z,3.00
2018-07-01T18:32:10.109Z,3.33
2018-07-01T18:34:38.536Z,3.77
2018-07-01T18:37:06.975Z,3.23
2018-07-01T18:39:35.383Z,3.20
2018-07-01T18:42:03.844Z,3.53
2018-07-01T18:44:32.266Z,2.77
2018-07-01T18:47:00.747Z,3.13
2018-07-01T18:49:29.183Z,3.17
2018-07-01T18:51:57.591Z,3.73
2018-07-01T18:54:26.027Z,3.00
2018-07-01T18:56:54.458Z,3.27
2018-07-01T18:59:22.940Z,3.50
2018-07-01T19:01:51.392Z,3.60
2018-07-01T19:04:19.789Z,3.13
2018-07-01T19:06:48.246Z,3.57
2018-07-01T19:09:16.679Z,3.43
2018-07-01T19:11:45.156Z,3.27
2018-07-01T19:14:13.619Z,3.30
2018-07-01T19:16:42.144Z,3.37
2018-07-01T19:19:10.591Z,3.47
2018-07-01T19:21:39.035Z,3.43
2018-07-01T19:24:07.497Z,3.50
2018-07-01T19:26:35.904Z,3.83
2018-07-01T19:29:04.487Z,3.43
2018-07-01T19:31:33.143Z,3.43
2018-07-01T19:34:01.633Z,3.47
2018-07-01T19:36:30.024Z,3.23
2018-07-01T19:38:58.410Z,3.70
2018-07-01T19:41:26.823Z,3.20
2018-07-01T19:43:55.280Z,3.47
2018-07-01T19:46:23.702Z,3.50
2018-07-01T19:48:52.136Z,3.13
2018-07-01T19:51:20.537Z,3.53
2018-07-01T19:53:48.942Z,3.40
2018-07-01T19:56:17.413Z,3.40
2018-07-01T19:58:45.851Z,3.13
2018-07-01T20:01:14.279Z,3.33
2018-07-01T20:03:43.027Z,3.20
2018-07-01T20:06:11.660Z,3.13
2018-07-01T20:08:40.088Z,3.73
2018-07-01T20:11:08.600Z,4.13
2018-07-01T20:13:37.026Z,3.53
2018-07-01T20:16:05.495Z,3.60
2018-07-01T20:18:33.952Z,4.30
2018-07-01T20:21:02.359Z,3.80
2018-07-01T20:23:30.775Z,3.87
2018-07-01T20:25:59.181Z,3.43
2018-07-01T20:28:27.612Z,3.80
2018-07-01T20:30:56.048Z,3.30
2018-07-01T20:33:24.462Z,3.73
2018-07-01T20:35:52.982Z,3.57
2018-07-01T20:38:21.383Z,3.50
2018-07-01T20:40:49.821Z,3.43
2018-07-01T20:43:18.371Z,3.10
2018-07-01T20:45:46.780Z,3.80
2018-07-01T20:48:15.197Z,3.60
2018-07-01T20:50:43.606Z,3.70
2018-07-01T20:53:11.994Z,3.10
2018-07-01T20:55:40.407Z,3.20
2018-07-01T20:58:08.820Z,3.90
2018-07-01T21:00:37.253Z,3.40
2018-07-01T21:03:05.662Z,3.40
2018-07-01T21:05:34.177Z,3.23
2018-07-01T21:08:02.619Z,3.70
2018-07-01T21:10:31.051Z,3.20
2018-07-01T21:12:59.542Z,3.53
2018-07-01T21:15:28.038Z,3.37
2018-07-01T21:17:56.511Z,3.40
2018-07-01T21:20:24.941Z,3.43
2018-07-01T21:22:53.380Z,2.80
2018-07-01T21:25:21.835Z,3.47
2018-07-01T21:27:50.425Z,3.00
2018-07-01T21:30:19.416Z,3.20
2018-07-01T21:32:48.055Z,3.47
2018-07-01T21:35:16.547Z,3.37
2018-07-01T21:37:44.987Z,3.40
2018-07-01T21:40:13.484Z,3.37
2018-07-01T21:42:42.038Z,3.07
2018-07-01T21:45:10.533Z,3.10
2018-07-01T21:47:39.103Z,3.43
2018-07-01T21:50:08.020Z,3.40
2018-07-01T21:52:36.496Z,3.20
2018-07-01T21:55:05.347Z,3.10
2018-07-01T21:57:33.861Z,3.20
2018-07-01T22:00:02.341Z,3.33
2018-07-01T22:02:30.857Z,3.10
2018-07-01T22:04:59.333Z,2.90
2018-07-01T22:07:27.826Z,3.17
2018-07-01T22:09:56.342Z,3.00
2018-07-01T22:12:30.260Z,3.67
2018-07-01T22:15:04.337Z,3.37
2018-07-01T22:17:32.715Z,3.10
2018-07-01T22:20:01.640Z,3.10
2018-07-01T22:22:30.227Z,3.23
2018-07-01T22:24:58.654Z,3.43
2018-07-01T22:27:27.131Z,3.00
2018-07-01T22:29:55.593Z,3.20
2018-07-01T22:32:24.069Z,3.27
2018-07-01T22:34:52.502Z,3.17
2018-07-01T22:37:20.927Z,3.47
2018-07-01T22:39:49.365Z,3.13
2018-07-01T22:42:17.839Z,3.80
2018-07-01T22:44:46.360Z,3.37
2018-07-01T22:47:14.796Z,3.20
2018-07-01T22:49:43.323Z,3.10
2018-07-01T22:52:11.904Z,3.03
2018-07-01T22:54:40.344Z,3.00
2018-07-01T22:57:08.791Z,2.77
2018-07-01T22:59:37.215Z,3.20
2018-07-01T23:03:09.519Z,2.97
2018-07-01T23:05:37.753Z,2.97
2018-07-01T23:08:06.267Z,3.20
2018-07-01T23:10:34.746Z,3.17
2018-07-01T23:13:03.408Z,3.20
2018-07-01T23:15:32.092Z,3.00
2018-07-01T23:18:00.616Z,3.33
2018-07-01T23:20:29.063Z,2.97
2018-07-01T23:22:57.875Z,3.17
2018-07-01T23:25:26.503Z,3.03
2018-07-01T23:27:54.984Z,3.00
2018-07-01T23:30:23.446Z,2.80
2018-07-01T23:32:51.895Z,2.83
2018-07-01T23:35:20.316Z,3.00
2018-07-01T23:37:48.779Z,2.80
2018-07-01T23:40:17.215Z,2.40
2018-07-01T23:42:45.674Z,3.23
2018-07-01T23:45:15.246Z,2.60
2018-07-01T23:47:44.475Z,2.63
2018-07-01T23:50:12.988Z,2.77
2018-07-01T23:52:41.481Z,3.13
2018-07-01T23:55:10.380Z,3.00
2018-07-01T23:57:38.855Z,3.00
